Time;durP1;ratioP1;P1;durP2;ratioP2;P2;SDS_P1;SDS_P2;PMS_P1;PMS_P2;Temp;Humidity;BMP_temperature;BMP_pressure;BME280_temperature;BME280_humidity;BME280_pressure;Samples;Min_cycle;Max_cycle;Signal;HPM_P1;HPM_P2
2022/06/14 00:03:14;;;;;;;;;13.50;13.00;;;;;-142.59;100.00;56100.38;5074322;28;49861;-71
2022/06/14 00:05:39;;;;;;;;;13.50;13.00;;;;;-142.59;100.00;56100.38;5074115;27;49629;-72
2022/06/14 00:08:05;;;;;;;;;17.00;13.00;;;;;-142.59;100.00;56100.38;5074063;28;49754;-71
2022/06/14 00:10:30;;;;;;;;;21.25;19.50;;;;;-142.59;100.00;56100.38;5073921;28;49802;-72
2022/06/14 00:12:56;;;;;;;;;20.25;15.75;;;;;-142.59;100.00;56100.38;5073998;28;49870;-71
2022/06/14 00:15:21;;;;;;;;;15.25;14.25;;;;;-142.59;100.00;56100.38;5074166;28;49708;-72
2022/06/14 00:17:46;;;;;;;;;16.75;16.75;;;;;-142.59;100.00;56100.38;5074243;28;49752;-71
2022/06/14 00:20:12;;;;;;;;;21.00;16.00;;;;;-142.59;100.00;56100.38;5073849;28;49584;-72
2022/06/14 00:22:38;;;;;;;;;18.50;18.00;;;;;-142.59;100.00;56100.38;5073714;28;49707;-71
2022/06/14 00:25:04;;;;;;;;;17.25;16.25;;;;;-142.59;100.00;56100.38;5073900;28;49491;-71
2022/06/14 00:27:29;;;;;;;;;21.25;20.00;;;;;-142.59;100.00;56100.38;5074101;28;49827;-71
2022/06/14 00:29:55;;;;;;;;;16.00;15.50;;;;;-142.59;100.00;56100.38;5073770;28;49647;-72
2022/06/14 00:32:20;;;;;;;;;16.50;15.00;;;;;-142.59;100.00;56100.38;5073359;28;49757;-71
2022/06/14 00:34:45;;;;;;;;;15.50;13.75;;;;;-142.59;100.00;56100.38;5073838;28;49659;-72
2022/06/14 00:37:16;;;;;;;;;13.75;13.75;;;;;-142.59;100.00;56100.38;5074035;28;49739;-71
2022/06/14 00:39:41;;;;;;;;;9.00;8.75;;;;;-142.59;100.00;56100.38;5073287;28;49712;-71
2022/06/14 00:42:17;;;;;;;;;11.75;10.00;;;;;-142.59;100.00;56100.38;5073641;28;49676;-71
2022/06/14 00:44:42;;;;;;;;;12.50;12.50;;;;;-142.59;100.00;56100.38;5073686;28;49716;-71
2022/06/14 00:47:14;;;;;;;;;10.25;9.50;;;;;-142.59;100.00;56100.38;5073770;27;49478;-70
2022/06/14 00:49:42;;;;;;;;;10.00;10.00;;;;;-142.59;100.00;56100.38;5072940;28;51023;-71
2022/06/14 00:52:23;;;;;;;;;11.00;11.00;;;;;-142.59;100.00;56100.38;5071973;28;49790;-71
2022/06/14 00:54:54;;;;;;;;;12.75;9.75;;;;;-142.59;100.00;56100.38;5070167;27;49696;-70
2022/06/14 00:57:32;;;;;;;;;8.75;8.75;;;;;-142.59;100.00;56100.38;5072073;28;49781;-71
2022/06/14 01:00:05;;;;;;;;;5.00;5.00;;;;;-142.59;100.00;56100.38;5071489;28;50702;-71
2022/06/14 01:02:35;;;;;;;;;9.50;6.25;;;;;-142.59;100.00;56100.38;5073338;28;49981;-71
2022/06/14 01:05:10;;;;;;;;;10.00;8.00;;;;;-142.59;100.00;56100.38;5072712;28;49472;-71
2022/06/14 01:07:43;;;;;;;;;7.50;7.50;;;;;-142.59;100.00;56100.38;5072906;28;49755;-71
2022/06/14 01:10:15;;;;;;;;;7.75;6.75;;;;;-142.59;100.00;56100.38;5073209;28;51070;-71
2022/06/14 01:12:45;;;;;;;;;8.00;5.00;;;;;-142.59;100.00;56100.38;5073291;28;49869;-71
2022/06/14 01:15:29;;;;;;;;;7.25;6.25;;;;;-142.59;100.00;56100.38;5073186;28;49771;-71
2022/06/14 01:18:02;;;;;;;;;7.25;6.25;;;;;-142.59;100.00;56100.38;5072859;27;49968;-71
2022/06/14 01:20:28;;;;;;;;;6.50;6.00;;;;;-142.59;100.00;56100.38;5073059;28;52005;-72
2022/06/14 01:22:54;;;;;;;;;6.25;6.25;;;;;-142.59;100.00;56100.38;5073075;28;49848;-71
2022/06/14 01:25:21;;;;;;;;;8.00;7.50;;;;;-142.59;100.00;56100.38;5072568;28;49534;-71
2022/06/14 01:27:46;;;;;;;;;4.00;4.00;;;;;-142.59;100.00;56100.38;5072209;28;49570;-71
2022/06/14 01:30:14;;;;;;;;;9.00;7.00;;;;;-142.59;100.00;56100.38;5072907;28;50572;-71
2022/06/14 01:32:48;;;;;;;;;8.00;7.25;;;;;-142.59;100.00;56100.38;5073063;28;49791;-71
2022/06/14 01:35:17;;;;;;;;;4.75;4.75;;;;;-142.59;100.00;56100.38;5072596;28;49569;-71
2022/06/14 01:37:47;;;;;;;;;6.50;6.25;;;;;-142.59;100.00;56100.38;5071957;28;51011;-71
2022/06/14 01:40:13;;;;;;;;;5.00;5.00;;;;;-142.59;100.00;56100.38;5072657;28;50979;-71
2022/06/14 01:43:04;;;;;;;;;6.00;4.00;;;;;-142.59;100.00;56100.38;5072510;28;49600;-71
2022/06/14 01:45:29;;;;;;;;;5.75;5.75;;;;;-142.59;100.00;56100.38;5066277;28;49859;-71
2022/06/14 01:48:26;;;;;;;;;6.50;6.25;;;;;-142.59;100.00;56100.38;5076274;28;49588;-71
2022/06/14 01:53:56;;;;;;;;;7.00;5.50;;;;;-142.59;100.00;56100.38;5075973;27;49578;-71
2022/06/14 01:56:39;;;;;;;;;5.75;5.75;;;;;-142.59;100.00;56100.38;5075307;27;49668;-70
2022/06/14 01:59:07;;;;;;;;;4.75;4.75;;;;;-142.59;100.00;56100.38;5075757;28;49982;-71
2022/06/14 02:01:45;;;;;;;;;7.25;6.75;;;;;-142.59;100.00;56100.38;5076064;27;49536;-71
2022/06/14 02:04:38;;;;;;;;;5.00;5.00;;;;;-142.59;100.00;56100.38;5076137;28;49800;-70
2022/06/14 02:07:14;;;;;;;;;7.50;6.25;;;;;-142.59;100.00;56100.38;5075809;28;49640;-71
2022/06/14 02:10:14;;;;;;;;;9.25;5.75;;;;;-142.59;100.00;56100.38;5075391;28;49989;-71
2022/06/14 02:12:50;;;;;;;;;6.00;6.00;;;;;-142.59;100.00;56100.38;5075621;28;50577;-70
2022/06/14 02:15:28;;;;;;;;;10.25;6.75;;;;;-142.59;100.00;56100.38;5075858;28;49893;-71
2022/06/14 02:18:00;;;;;;;;;6.50;6.50;;;;;-142.59;100.00;56100.38;5074833;28;49870;-71
2022/06/14 02:20:33;;;;;;;;;8.50;6.50;;;;;-142.59;100.00;56100.38;5076111;27;50026;-71
2022/06/14 02:23:03;;;;;;;;;6.00;6.00;;;;;-142.59;100.00;56100.38;5075220;28;49745;-71
2022/06/14 02:25:44;;;;;;;;;9.00;7.00;;;;;-142.59;100.00;56100.38;5075872;28;49719;-71
2022/06/14 02:28:17;;;;;;;;;6.25;5.25;;;;;-142.59;100.00;56100.38;5075070;28;49871;-71
2022/06/14 02:30:54;;;;;;;;;8.25;8.00;;;;;-142.59;100.00;56100.38;5075410;27;49836;-71
2022/06/14 02:33:25;;;;;;;;;7.50;7.50;;;;;-142.59;100.00;56100.38;5057400;28;52457;-71
2022/06/14 02:36:04;;;;;;;;;6.50;6.50;;;;;-142.59;100.00;56100.38;5075780;28;49723;-71
2022/06/14 02:38:41;;;;;;;;;7.00;7.00;;;;;-142.59;100.00;56100.38;5075337;27;49499;-70
2022/06/14 02:41:32;;;;;;;;;8.00;7.00;;;;;-142.59;100.00;56100.38;5075143;28;49742;-71
2022/06/14 02:44:09;;;;;;;;;15.00;10.25;;;;;-142.59;100.00;56100.38;5075339;28;50516;-72
2022/06/14 02:46:42;;;;;;;;;9.00;9.00;;;;;-142.59;100.00;56100.38;5074979;27;49774;-71
2022/06/14 02:49:42;;;;;;;;;8.50;7.00;;;;;-142.59;100.00;56100.38;5057232;28;49769;-71
2022/06/14 02:52:16;;;;;;;;;8.00;6.00;;;;;-142.59;100.00;56100.38;5074098;28;49584;-71
2022/06/14 02:54:55;;;;;;;;;8.25;8.00;;;;;-142.59;100.00;56100.38;5074597;28;49625;-72
2022/06/14 02:57:47;;;;;;;;;8.00;7.25;;;;;-142.59;100.00;56100.38;5056327;28;49639;-72
2022/06/14 03:00:13;;;;;;;;;5.75;5.75;;;;;-142.59;100.00;56100.38;5074722;27;49882;-71
2022/06/14 03:03:04;;;;;;;;;7.50;7.50;;;;;-142.59;100.00;56100.38;5075346;28;50135;-71
2022/06/14 03:05:44;;;;;;;;;12.50;9.00;;;;;-142.59;100.00;56100.38;5074589;28;49772;-71
2022/06/14 03:08:09;;;;;;;;;12.50;10.00;;;;;-142.59;100.00;56100.38;5074818;28;49761;-72
2022/06/14 03:11:24;;;;;;;;;8.25;7.25;;;;;-142.59;100.00;56100.38;5075258;28;49640;-71
2022/06/14 03:13:55;;;;;;;;;10.50;9.75;;;;;-142.59;100.00;56100.38;5036541;28;50228;-72
2022/06/14 03:16:20;;;;;;;;;6.75;6.25;;;;;-142.59;100.00;56100.38;5054496;28;50404;-71
2022/06/14 03:18:52;;;;;;;;;8.75;8.75;;;;;-142.59;100.00;56100.38;5072033;28;49991;-71
2022/06/14 03:21:52;;;;;;;;;8.00;8.00;;;;;-142.59;100.00;56100.38;5074592;28;49986;-72
2022/06/14 03:24:38;;;;;;;;;7.75;7.75;;;;;-142.59;100.00;56100.38;5069227;28;49575;-71
2022/06/14 03:27:14;;;;;;;;;8.75;8.00;;;;;-142.59;100.00;56100.38;5074708;28;50560;-71
2022/06/14 03:29:50;;;;;;;;;5.50;5.25;;;;;-142.59;100.00;56100.38;5074467;27;49616;-71
2022/06/14 03:32:45;;;;;;;;;6.50;6.00;;;;;-142.59;100.00;56100.38;5054593;28;49824;-72
2022/06/14 03:35:25;;;;;;;;;9.50;7.00;;;;;-142.59;100.00;56100.38;5054737;28;49794;-71
2022/06/14 03:37:52;;;;;;;;;4.00;4.00;;;;;-142.59;100.00;56100.38;5054052;28;50509;-71
2022/06/14 03:40:20;;;;;;;;;5.25;5.25;;;;;-142.59;100.00;56100.38;5054534;28;49822;-72
2022/06/14 03:42:46;;;;;;;;;6.00;6.00;;;;;-142.59;100.00;56100.38;5060453;28;49911;-72
2022/06/14 03:45:17;;;;;;;;;9.50;7.50;;;;;-142.59;100.00;56100.38;5074246;28;49755;-71
2022/06/14 03:47:43;;;;;;;;;7.50;5.75;;;;;-142.59;100.00;56100.38;5074348;28;49862;-71
2022/06/14 03:50:13;;;;;;;;;5.00;5.00;;;;;-142.59;100.00;56100.38;5074143;28;49536;-71
2022/06/14 03:53:00;;;;;;;;;8.00;5.25;;;;;-142.59;100.00;56100.38;5073921;28;49841;-71
2022/06/14 03:55:57;;;;;;;;;8.00;6.25;;;;;-142.59;100.00;56100.38;5074084;27;49863;-72
2022/06/14 03:59:01;;;;;;;;;7.00;7.00;;;;;-142.59;100.00;56100.38;5073788;28;49659;-71
2022/06/14 04:01:30;;;;;;;;;5.00;5.00;;;;;-142.59;100.00;56100.38;5074126;28;49633;-70
2022/06/14 04:04:23;;;;;;;;;5.75;5.25;;;;;-142.59;100.00;56100.38;5074474;28;49797;-72
2022/06/14 04:07:22;;;;;;;;;6.50;4.75;;;;;-142.59;100.00;56100.38;5073520;28;49939;-71
2022/06/14 04:10:06;;;;;;;;;3.00;3.00;;;;;-142.59;100.00;56100.38;5072631;28;50816;-71
2022/06/14 04:12:56;;;;;;;;;6.25;5.00;;;;;-142.59;100.00;56100.38;5074049;28;49704;-71
2022/06/14 04:15:24;;;;;;;;;6.00;6.00;;;;;-142.59;100.00;56100.38;5073081;27;50545;-71
2022/06/14 04:18:34;;;;;;;;;5.75;5.75;;;;;-142.59;100.00;56100.38;5074197;28;49792;-71
2022/06/14 04:21:00;;;;;;;;;8.75;7.50;;;;;-142.59;100.00;56100.38;5072645;28;49605;-71
2022/06/14 04:23:42;;;;;;;;;6.00;6.00;;;;;-142.59;100.00;56100.38;5056102;28;49776;-70
2022/06/14 04:26:24;;;;;;;;;10.25;9.00;;;;;-142.59;100.00;56100.38;5073964;28;49718;-72
2022/06/14 04:28:58;;;;;;;;;4.00;4.00;;;;;-142.59;100.00;56100.38;5073708;28;49862;-71
2022/06/14 04:31:28;;;;;;;;;6.00;6.00;;;;;-142.59;100.00;56100.38;5073696;28;50719;-71
2022/06/14 04:34:17;;;;;;;;;4.25;4.25;;;;;-142.59;100.00;56100.38;5073334;28;49758;-71
2022/06/14 04:36:56;;;;;;;;;7.75;6.75;;;;;-142.59;100.00;56100.38;5073382;28;49563;-71
2022/06/14 04:39:38;;;;;;;;;7.75;6.50;;;;;-142.59;100.00;56100.38;5073785;28;49850;-71
2022/06/14 04:42:13;;;;;;;;;10.00;9.75;;;;;-142.59;100.00;56100.38;5073513;28;50493;-72
2022/06/14 04:44:52;;;;;;;;;7.00;7.00;;;;;-142.59;100.00;56100.38;5073650;28;49677;-71
2022/06/14 04:47:25;;;;;;;;;10.00;7.00;;;;;-142.59;100.00;56100.38;5073046;28;49882;-72
2022/06/14 04:49:57;;;;;;;;;6.25;6.25;;;;;-142.59;100.00;56100.38;5073755;27;49671;-72
2022/06/14 04:52:32;;;;;;;;;7.25;7.00;;;;;-142.59;100.00;56100.38;5071867;28;50503;-71
2022/06/14 04:55:18;;;;;;;;;8.25;7.00;;;;;-142.59;100.00;56100.38;5072973;28;49693;-71
2022/06/14 04:57:50;;;;;;;;;6.25;6.00;;;;;-142.59;100.00;56100.38;5073445;28;49460;-71
2022/06/14 05:00:31;;;;;;;;;6.25;6.25;;;;;-142.59;100.00;56100.38;5073181;28;49953;-71
2022/06/14 05:03:18;;;;;;;;;6.75;6.25;;;;;-142.59;100.00;56100.38;5055281;28;52078;-72
2022/06/14 05:05:57;;;;;;;;;6.00;6.00;;;;;-142.59;100.00;56100.38;5072772;28;49708;-71
2022/06/14 05:08:41;;;;;;;;;6.50;6.50;;;;;-142.59;100.00;56100.38;5072799;28;49732;-72
2022/06/14 05:11:10;;;;;;;;;6.00;5.00;;;;;-142.59;100.00;56100.38;5072878;27;49745;-72
2022/06/14 05:13:44;;;;;;;;;4.25;4.25;;;;;-142.59;100.00;56100.38;5073099;28;50616;-72
2022/06/14 05:16:18;;;;;;;;;5.25;5.25;;;;;-142.59;100.00;56100.38;5073253;28;49675;-72
2022/06/14 05:18:52;;;;;;;;;7.25;7.25;;;;;-142.59;100.00;56100.38;5073983;27;49729;-71
2022/06/14 05:21:28;;;;;;;;;4.00;4.00;;;;;-142.59;100.00;56100.38;5076532;28;50389;-71
2022/06/14 05:23:56;;;;;;;;;9.75;9.00;;;;;-142.59;100.00;56100.38;5075018;27;50449;-71
2022/06/14 05:26:50;;;;;;;;;6.25;5.50;;;;;-142.59;100.00;56100.38;5076740;28;49909;-72
2022/06/14 05:29:36;;;;;;;;;4.50;4.50;;;;;-142.59;100.00;56100.38;5057937;28;49816;-71
2022/06/14 05:32:12;;;;;;;;;5.75;5.75;;;;;-142.59;100.00;56100.38;5076333;27;49640;-72
2022/06/14 05:34:52;;;;;;;;;7.50;6.00;;;;;-142.59;100.00;56100.38;5075907;28;50428;-72
2022/06/14 05:37:50;;;;;;;;;6.50;6.00;;;;;-142.59;100.00;56100.38;5076156;28;49522;-72
2022/06/14 05:40:34;;;;;;;;;5.00;5.00;;;;;-142.59;100.00;56100.38;5075163;28;49762;-70
2022/06/14 05:43:25;;;;;;;;;5.25;5.25;;;;;-142.59;100.00;56100.38;5073813;27;49630;-78
2022/06/14 05:46:14;;;;;;;;;5.00;5.00;;;;;-142.59;100.00;56100.38;5075788;28;49612;-70
2022/06/14 05:48:47;;;;;;;;;5.25;5.25;;;;;-142.59;100.00;56100.38;5075240;28;49726;-66
2022/06/14 05:51:16;;;;;;;;;10.50;6.75;;;;;-142.59;100.00;56100.38;5076199;28;49696;-67
2022/06/14 05:54:08;;;;;;;;;7.00;5.00;;;;;-142.59;100.00;56100.38;5076280;27;49624;-67
2022/06/14 05:56:47;;;;;;;;;8.50;7.00;;;;;-142.59;100.00;56100.38;5074328;28;49703;-68
2022/06/14 05:59:32;;;;;;;;;6.25;6.25;;;;;-142.59;100.00;56100.38;5077682;27;49807;-78
2022/06/14 06:02:08;;;;;;;;;5.00;5.00;;;;;-142.59;100.00;56100.38;5070006;28;49881;-80
2022/06/14 06:04:46;;;;;;;;;9.00;7.00;;;;;-142.59;100.00;56100.38;5076141;27;49648;-75
2022/06/14 06:07:16;;;;;;;;;9.50;7.25;;;;;-142.59;100.00;56100.38;5057713;28;52615;-73
2022/06/14 06:09:52;;;;;;;;;6.25;6.25;;;;;-142.59;100.00;56100.38;5057429;28;49794;-70
2022/06/14 06:12:21;;;;;;;;;7.25;5.00;;;;;-142.59;100.00;56100.38;5075113;28;50050;-73
2022/06/14 06:14:52;;;;;;;;;8.00;7.50;;;;;-142.59;100.00;56100.38;5077126;28;49819;-73
2022/06/14 06:17:46;;;;;;;;;8.75;6.25;;;;;-142.59;100.00;56100.38;5075042;27;49956;-76
2022/06/14 06:20:27;;;;;;;;;7.25;7.00;;;;;-142.59;100.00;56100.38;5075192;27;49898;-85
2022/06/14 06:23:01;;;;;;;;;5.50;5.00;;;;;-142.59;100.00;56100.38;5075694;28;49823;-69
2022/06/14 06:25:30;;;;;;;;;10.25;7.00;;;;;-142.59;100.00;56100.38;5075546;28;49789;-74
2022/06/14 06:28:16;;;;;;;;;7.75;6.25;;;;;-142.59;100.00;56100.38;5074968;28;49854;-77
2022/06/14 06:31:09;;;;;;;;;6.25;5.50;;;;;-142.59;100.00;56100.38;5074022;27;49788;-76
2022/06/14 06:33:38;;;;;;;;;7.25;6.25;;;;;-142.59;100.00;56100.38;5073635;28;49771;-71
2022/06/14 06:36:25;;;;;;;;;6.50;6.00;;;;;-142.59;100.00;56100.38;5074896;28;49750;-73
2022/06/14 06:39:15;;;;;;;;;5.75;4.75;;;;;-142.59;100.00;56100.38;5056784;28;52402;-73
2022/06/14 06:41:50;;;;;;;;;7.75;6.25;;;;;-142.59;100.00;56100.38;5075301;27;49822;-72
2022/06/14 06:44:48;;;;;;;;;8.50;5.75;;;;;-142.59;100.00;56100.38;5074978;28;49823;-73
2022/06/14 06:47:31;;;;;;;;;7.50;6.00;;;;;-142.59;100.00;56100.38;5052258;28;49866;-73
2022/06/14 06:50:21;;;;;;;;;5.00;5.00;;;;;-142.59;100.00;56100.38;5075095;27;50625;-72
2022/06/14 06:53:15;;;;;;;;;8.75;5.25;;;;;-142.59;100.00;56100.38;5074449;28;49814;-75
2022/06/14 06:56:15;;;;;;;;;5.50;4.75;;;;;-142.59;100.00;56100.38;5074751;28;49670;-79
2022/06/14 06:58:56;;;;;;;;;8.50;5.25;;;;;-142.59;100.00;56100.38;5074543;28;49770;-69
2022/06/14 07:01:27;;;;;;;;;5.75;5.50;;;;;-142.59;100.00;56100.38;5075099;28;50479;-68
2022/06/14 07:04:14;;;;;;;;;7.75;6.00;;;;;-142.59;100.00;56100.38;5072098;27;49641;-74
2022/06/14 07:06:44;;;;;;;;;7.00;6.00;;;;;-142.59;100.00;56100.38;5060034;28;49791;-72
2022/06/14 07:09:14;;;;;;;;;6.00;4.75;;;;;-142.59;100.00;56100.38;5074220;27;49827;-73
2022/06/14 07:11:49;;;;;;;;;4.00;4.00;;;;;-142.59;100.00;56100.38;5074876;28;50892;-73
2022/06/14 07:14:41;;;;;;;;;8.00;7.50;;;;;-142.59;100.00;56100.38;5074825;28;49815;-73
2022/06/14 07:17:14;;;;;;;;;7.75;6.75;;;;;-142.59;100.00;56100.38;5079551;27;49832;-71
2022/06/14 07:19:48;;;;;;;;;10.00;9.75;;;;;-142.59;100.00;56100.38;5072641;28;49691;-74
2022/06/14 07:22:28;;;;;;;;;4.75;4.75;;;;;-142.59;100.00;56100.38;5072142;28;51015;-73
2022/06/14 07:24:54;;;;;;;;;7.00;6.25;;;;;-142.59;100.00;56100.38;5072942;28;49775;-73
2022/06/14 07:27:24;;;;;;;;;7.50;5.50;;;;;-142.59;100.00;56100.38;5066163;28;49870;-72
2022/06/14 07:30:06;;;;;;;;;7.00;5.75;;;;;-142.59;100.00;56100.38;5058733;28;49707;-72
2022/06/14 07:32:39;;;;;;;;;5.00;5.00;;;;;-142.59;100.00;56100.38;5053898;28;50471;-71
2022/06/14 07:35:05;;;;;;;;;9.75;7.75;;;;;-142.59;100.00;56100.38;5054026;28;49688;-74
2022/06/14 07:37:46;;;;;;;;;4.75;4.75;;;;;-142.59;100.00;56100.38;5059043;28;49637;-72
2022/06/14 07:40:21;;;;;;;;;7.00;6.00;;;;;-142.59;100.00;56100.38;5073785;28;49700;-73
2022/06/14 07:42:52;;;;;;;;;7.00;6.00;;;;;-142.59;100.00;56100.38;5073316;28;49759;-74
2022/06/14 07:45:23;;;;;;;;;9.00;6.75;;;;;-142.59;100.00;56100.38;5074012;28;49695;-72
2022/06/14 07:47:57;;;;;;;;;6.00;6.00;;;;;-142.59;100.00;56100.38;5073912;28;49721;-74
2022/06/14 07:50:37;;;;;;;;;10.00;6.25;;;;;-142.59;100.00;56100.38;5073931;28;49847;-75
2022/06/14 07:53:08;;;;;;;;;5.50;5.50;;;;;-142.59;100.00;56100.38;5055888;28;50716;-76
2022/06/14 07:55:47;;;;;;;;;63.25;39.25;;;;;-142.59;100.00;56100.38;5073733;28;49803;-73
2022/06/14 07:58:51;;;;;;;;;7.25;7.25;;;;;-142.59;100.00;56100.38;5073764;28;50124;-74
2022/06/14 08:01:26;;;;;;;;;8.25;6.50;;;;;-142.59;100.00;56100.38;5070640;27;49694;-69
2022/06/14 08:04:13;;;;;;;;;6.50;6.50;;;;;-142.59;100.00;56100.38;5073815;28;50018;-69
2022/06/14 08:06:43;;;;;;;;;5.00;3.50;;;;;-142.59;100.00;56100.38;5073797;27;49842;-72
2022/06/14 08:09:53;;;;;;;;;8.75;6.75;;;;;-142.59;100.00;56100.38;5073217;28;49854;-69
2022/06/14 08:12:29;;;;;;;;;6.00;5.00;;;;;-142.59;100.00;56100.38;5048189;28;49870;-75
2022/06/14 08:15:01;;;;;;;;;4.50;4.00;;;;;-142.59;100.00;56100.38;5073793;28;49595;-76
2022/06/14 08:18:00;;;;;;;;;3.50;3.50;;;;;-142.59;100.00;56100.38;5073369;28;49650;-77
2022/06/14 08:20:46;;;;;;;;;4.50;4.50;;;;;-142.59;100.00;56100.38;5073649;27;49820;-78
2022/06/14 08:23:39;;;;;;;;;7.25;7.00;;;;;-142.59;100.00;56100.38;5073706;28;49769;-82
2022/06/14 08:26:14;;;;;;;;;5.75;5.75;;;;;-142.59;100.00;56100.38;5073187;28;49674;-80
2022/06/14 08:29:25;;;;;;;;;4.50;4.50;;;;;-142.59;100.00;56100.38;5073335;28;49804;-74
2022/06/14 08:31:54;;;;;;;;;8.00;3.50;;;;;-142.59;100.00;56100.38;5040055;28;49913;-76
2022/06/14 08:34:33;;;;;;;;;6.00;6.00;;;;;-142.59;100.00;56100.38;5073796;28;49795;-78
2022/06/14 08:37:12;;;;;;;;;6.25;6.25;;;;;-142.59;100.00;56100.38;5073599;28;50801;-77
2022/06/14 08:39:47;;;;;;;;;7.50;6.00;;;;;-142.59;100.00;56100.38;5072857;28;49849;-73
2022/06/14 08:42:38;;;;;;;;;6.00;5.50;;;;;-142.59;100.00;56100.38;5072901;28;49522;-73
2022/06/14 08:45:13;;;;;;;;;6.75;6.00;;;;;-142.59;100.00;56100.38;5061462;27;49690;-66
2022/06/14 08:48:01;;;;;;;;;5.00;5.00;;;;;-142.59;100.00;56100.38;5066186;28;49760;-66
2022/06/14 08:50:45;;;;;;;;;5.75;5.75;;;;;-142.59;100.00;56100.38;5052616;28;49588;-66
2022/06/14 08:53:24;;;;;;;;;5.75;5.75;;;;;-142.59;100.00;56100.38;5054258;28;49647;-69
2022/06/14 08:56:25;;;;;;;;;6.00;6.00;;;;;-142.59;100.00;56100.38;5056614;28;49847;-66
2022/06/14 08:59:15;;;;;;;;;5.00;5.00;;;;;-142.59;100.00;56100.38;5025014;28;50781;-66
2022/06/14 09:01:59;;;;;;;;;6.00;6.00;;;;;-142.59;100.00;56100.38;5056652;28;49657;-65
2022/06/14 09:04:54;;;;;;;;;6.00;5.00;;;;;-142.59;100.00;56100.38;5056797;28;49726;-65
2022/06/14 09:07:50;;;;;;;;;5.00;5.00;;;;;-142.59;100.00;56100.38;5056586;28;49596;-72
2022/06/14 09:10:35;;;;;;;;;4.25;3.00;;;;;-142.59;100.00;56100.38;5056364;28;51636;-68
2022/06/14 09:13:09;;;;;;;;;9.00;7.75;;;;;-142.59;100.00;56100.38;5056642;28;49926;-65
2022/06/14 09:15:34;;;;;;;;;7.25;5.50;;;;;-142.59;100.00;56100.38;5056694;28;49813;-64
2022/06/14 09:18:24;;;;;;;;;8.50;5.00;;;;;-142.59;100.00;56100.38;5056735;28;49704;-65
2022/06/14 09:20:55;;;;;;;;;4.25;4.25;;;;;-142.59;100.00;56100.38;5056579;28;50725;-64
2022/06/14 09:23:39;;;;;;;;;5.00;3.50;;;;;-142.59;100.00;56100.38;5056416;28;49803;-64
2022/06/14 09:26:34;;;;;;;;;4.50;4.50;;;;;-142.59;100.00;56100.38;5056110;28;49878;-64
2022/06/14 09:29:18;;;;;;;;;5.00;5.00;;;;;-142.59;100.00;56100.38;5056559;28;50016;-64
2022/06/14 09:32:29;;;;;;;;;3.00;3.00;;;;;-142.59;100.00;56100.38;5055416;28;49822;-65
2022/06/14 09:35:36;;;;;;;;;5.00;4.25;;;;;-142.59;100.00;56100.38;5056258;28;49684;-68
2022/06/14 09:38:24;;;;;;;;;4.25;4.25;;;;;-142.59;100.00;56100.38;5038588;28;49633;-64
2022/06/14 09:41:05;;;;;;;;;8.50;6.00;;;;;-142.59;100.00;56100.38;5056035;28;49939;-68
2022/06/14 09:43:43;;;;;;;;;3.75;3.00;;;;;-142.59;100.00;56100.38;5055980;28;50490;-64
2022/06/14 09:46:20;;;;;;;;;4.00;4.00;;;;;-142.59;100.00;56100.38;5056070;28;49665;-64
2022/06/14 09:49:23;;;;;;;;;4.75;4.00;;;;;-142.59;100.00;56100.38;5056042;28;49823;-64
2022/06/14 09:52:14;;;;;;;;;9.00;7.25;;;;;-142.59;100.00;56100.38;5056033;28;49869;-66
2022/06/14 09:55:30;;;;;;;;;8.50;7.50;;;;;-142.59;100.00;56100.38;5055669;28;50568;-68
2022/06/14 09:58:07;;;;;;;;;5.50;5.50;;;;;-142.59;100.00;56100.38;5021450;28;49709;-69
2022/06/14 10:00:36;;;;;;;;;11.00;4.00;;;;;-142.59;100.00;56100.38;5056000;28;49767;-67
2022/06/14 10:03:34;;;;;;;;;7.00;6.25;;;;;-142.59;100.00;56100.38;5055518;28;49728;-70
2022/06/14 10:06:11;;;;;;;;;6.00;6.00;;;;;-142.59;100.00;56100.38;5055062;28;50568;-65
2022/06/14 10:08:54;;;;;;;;;6.25;5.50;;;;;-142.59;100.00;56100.38;5055776;28;49626;-64
2022/06/14 10:11:46;;;;;;;;;4.25;3.75;;;;;-142.59;100.00;56100.38;5055696;28;49760;-64
2022/06/14 10:14:38;;;;;;;;;5.00;4.25;;;;;-142.59;100.00;56100.38;5055902;28;49969;-64
2022/06/14 10:17:22;;;;;;;;;6.00;6.00;;;;;-142.59;100.00;56100.38;5055657;28;49661;-67
2022/06/14 10:20:19;;;;;;;;;1.50;1.50;;;;;-142.59;100.00;56100.38;5055488;28;49658;-64
2022/06/14 10:23:11;;;;;;;;;6.00;6.00;;;;;-142.59;100.00;56100.38;5055546;28;49681;-64
2022/06/14 10:28:49;;;;;;;;;5.00;5.00;;;;;-142.59;100.00;56100.38;5060045;28;49853;-64
2022/06/14 10:31:58;;;;;;;;;4.75;4.50;;;;;-142.59;100.00;56100.38;5066538;27;49774;-66
2022/06/14 10:34:36;;;;;;;;;5.00;5.00;;;;;-142.59;100.00;56100.38;5019753;28;49786;-64
2022/06/14 10:37:16;;;;;;;;;5.00;5.00;;;;;-142.59;100.00;56100.38;5055502;28;49890;-65
2022/06/14 10:40:06;;;;;;;;;5.00;5.00;;;;;-142.59;100.00;56100.38;5057980;28;50429;-64
2022/06/14 10:42:48;;;;;;;;;7.50;5.50;;;;;-142.59;100.00;56100.38;5063996;28;51318;-65
2022/06/14 10:45:19;;;;;;;;;4.25;4.25;;;;;-142.59;100.00;56100.38;5065562;28;49740;-64
2022/06/14 10:48:13;;;;;;;;;6.00;6.00;;;;;-142.59;100.00;56100.38;5064134;27;49696;-68
2022/06/14 10:51:08;;;;;;;;;7.75;5.75;;;;;-142.59;100.00;56100.38;5036152;28;50864;-69
2022/06/14 10:53:55;;;;;;;;;3.00;3.00;;;;;-142.59;100.00;56100.38;5072236;27;50757;-67
2022/06/14 10:56:58;;;;;;;;;6.00;6.00;;;;;-142.59;100.00;56100.38;5063562;28;49724;-68
2022/06/14 10:59:51;;;;;;;;;4.75;4.75;;;;;-142.59;100.00;56100.38;5055173;28;49751;-66
2022/06/14 11:02:50;;;;;;;;;6.25;6.00;;;;;-142.59;100.00;56100.38;5044556;28;51646;-65
2022/06/14 11:05:54;;;;;;;;;6.00;5.50;;;;;-142.59;100.00;56100.38;5075153;28;50005;-71
2022/06/14 11:08:36;;;;;;;;;5.50;5.50;;;;;-142.59;100.00;56100.38;5073621;28;49945;-72
2022/06/14 11:11:13;;;;;;;;;6.50;6.50;;;;;-142.59;100.00;56100.38;5075337;28;49998;-71
2022/06/14 11:13:58;;;;;;;;;11.25;8.25;;;;;-142.59;100.00;56100.38;5056271;28;49763;-67
2022/06/14 11:16:29;;;;;;;;;4.50;4.50;;;;;-142.59;100.00;56100.38;5053375;28;49727;-71
2022/06/14 11:19:28;;;;;;;;;7.25;3.00;;;;;-142.59;100.00;56100.38;5036645;28;49937;-68
2022/06/14 11:22:12;;;;;;;;;5.00;5.00;;;;;-142.59;100.00;56100.38;5055115;28;50037;-72
2022/06/14 11:25:03;;;;;;;;;8.00;6.50;;;;;-142.59;100.00;56100.38;5054013;28;50398;-77
2022/06/14 11:27:51;;;;;;;;;4.50;4.50;;;;;-142.59;100.00;56100.38;5054411;28;49737;-77
2022/06/14 11:30:27;;;;;;;;;7.50;6.00;;;;;-142.59;100.00;56100.38;5055670;28;49776;-72
2022/06/14 11:33:01;;;;;;;;;8.00;6.00;;;;;-142.59;100.00;56100.38;5071173;27;50030;-79
2022/06/14 11:35:38;;;;;;;;;7.75;7.75;;;;;-142.59;100.00;56100.38;5056275;28;52241;-77
2022/06/14 11:38:25;;;;;;;;;13.50;7.25;;;;;-142.59;100.00;56100.38;5074543;28;49882;-79
2022/06/14 11:40:56;;;;;;;;;6.00;6.00;;;;;-142.59;100.00;56100.38;5057390;28;49662;-65
2022/06/14 11:43:40;;;;;;;;;5.25;5.25;;;;;-142.59;100.00;56100.38;5074627;28;49656;-70
2022/06/14 11:46:31;;;;;;;;;5.00;4.50;;;;;-142.59;100.00;56100.38;5067516;28;49880;-67
2022/06/14 11:49:02;;;;;;;;;6.00;5.25;;;;;-142.59;100.00;56100.38;5061735;28;49746;-68
2022/06/14 11:51:49;;;;;;;;;6.50;6.00;;;;;-142.59;100.00;56100.38;5058479;27;49807;-67
2022/06/14 11:54:25;;;;;;;;;9.25;7.00;;;;;-142.59;100.00;56100.38;5094610;27;49688;-66
2022/06/14 11:57:12;;;;;;;;;4.25;3.75;;;;;-142.59;100.00;56100.38;5076303;27;49800;-73
2022/06/14 11:59:56;;;;;;;;;9.00;5.50;;;;;-142.59;100.00;56100.38;5058885;27;49970;-71
2022/06/14 12:02:41;;;;;;;;;5.00;5.00;;;;;-142.59;100.00;56100.38;5094640;27;49486;-67
2022/06/14 12:05:19;;;;;;;;;6.25;6.00;;;;;-142.59;100.00;56100.38;5078657;27;50013;-70
2022/06/14 12:07:59;;;;;;;;;5.75;3.25;;;;;-142.59;100.00;56100.38;5063387;28;51499;-66
2022/06/14 12:10:39;;;;;;;;;6.50;6.50;;;;;-142.59;100.00;56100.38;5053501;28;49823;-67
2022/06/14 12:13:11;;;;;;;;;5.25;5.25;;;;;-142.59;100.00;56100.38;5053933;28;49658;-67